Time;durP1;ratioP1;P1;durP2;ratioP2;P2;SDS_P1;SDS_P2;PMS_P1;PMS_P2;Temp;Humidity;BMP_temperature;BMP_pressure;BME280_temperature;BME280_humidity;BME280_pressure;Samples;Min_cycle;Max_cycle;Signal;HPM_P1;HPM_P2
2023/02/25 08:16:33;;;;;;;7.25;2.10;;;6.40;99.90;;;;;;6293755;22;20057;-82
2023/02/25 08:19:07;;;;;;;8.93;1.65;;;6.20;99.90;;;;;;6245494;22;20075;-82
2023/02/25 08:21:39;;;;;;;8.60;1.70;;;6.50;99.90;;;;;;6290621;22;20004;-80
2023/02/25 09:18:30;;;;;;;15.95;2.78;;;6.70;99.90;;;;;;6274199;22;20026;-81
2023/02/25 09:21:06;;;;;;;8.95;2.10;;;5.10;99.90;;;;;;6299285;22;19999;-82
2023/02/25 09:23:37;;;;;;;9.27;2.53;;;7.00;99.90;;;;;;6297305;22;20003;-81
2023/02/25 09:26:04;;;;;;;9.60;2.40;;;7.10;99.90;;;;;;6290553;22;20031;-81
2023/02/25 09:28:34;;;;;;;9.10;2.40;;;7.00;99.90;;;;;;6319475;22;19999;-81
2023/02/25 09:31:01;;;;;;;6.40;2.30;;;6.90;99.90;;;;;;6319061;22;20059;-81
2023/02/25 09:33:34;;;;;;;12.07;2.42;;;7.10;99.90;;;;;;6266868;22;20007;-81
2023/02/25 09:36:25;;;;;;;10.85;2.38;;;6.80;99.90;;;;;;6267241;22;20015;-81
2023/02/25 09:38:53;;;;;;;15.65;2.65;;;6.70;99.90;;;;;;6320401;22;20007;-79
2023/02/25 09:43:53;;;;;;;5.53;2.28;;;6.90;99.90;;;;;;6310763;22;20019;-81
2023/02/25 09:46:22;;;;;;;8.75;2.92;;;6.90;99.90;;;;;;6256516;22;20008;-81
2023/02/25 09:49:01;;;;;;;10.48;2.45;;;7.00;99.90;;;;;;6254954;22;20004;-81
2023/02/25 09:51:34;;;;;;;11.60;3.47;;;7.00;99.90;;;;;;6258401;22;20021;-80
2023/02/25 09:54:05;;;;;;;9.32;2.28;;;8.20;99.90;;;;;;6283247;22;20053;-81
2023/02/25 09:56:34;;;;;;;7.82;2.90;;;6.30;99.90;;;;;;6281099;22;20059;-80
2023/02/25 09:59:01;;;;;;;16.10;3.00;;;6.90;99.90;;;;;;6283835;22;20006;-81
2023/02/25 10:01:44;;;;;;;10.35;2.70;;;6.90;99.90;;;;;;6258809;22;20015;-81
2023/02/25 10:04:27;;;;;;;10.50;2.65;;;8.20;99.90;;;;;;6248519;22;20106;-81
2023/02/25 10:06:58;;;;;;;10.80;2.65;;;6.60;99.90;;;;;;6277316;22;20015;-80
2023/02/25 10:09:51;;;;;;;12.13;2.88;;;9.00;99.90;;;;;;6251514;22;20425;-81
2023/02/25 10:12:44;;;;;;;13.75;2.80;;;6.90;99.90;;;;;;6252167;22;20337;-81
2023/02/25 10:15:42;;;;;;;10.45;3.13;;;7.00;99.90;;;;;;6251674;22;20004;-80
2023/02/25 10:18:32;;;;;;;6.88;1.92;;;7.00;99.90;;;;;;6253212;22;20007;-81
2023/02/25 10:21:07;;;;;;;8.93;2.45;;;5.50;99.90;;;;;;6278729;22;20011;-80
2023/02/25 10:23:42;;;;;;;8.38;2.22;;;7.30;99.90;;;;;;6279837;22;20449;-80
2023/02/25 10:26:23;;;;;;;9.75;2.42;;;7.40;99.90;;;;;;6256895;22;20010;-80
2023/02/25 10:28:58;;;;;;;9.07;2.53;;;9.60;99.90;;;;;;6256125;22;20003;-80
2023/02/25 10:31:24;;;;;;;8.10;1.67;;;7.50;99.90;;;;;;6277606;22;20003;-81
2023/02/25 10:33:52;;;;;;;9.95;2.10;;;7.50;99.90;;;;;;6253197;22;20030;-81
2023/02/25 10:36:28;;;;;;;7.28;1.77;;;9.70;99.90;;;;;;6279872;22;20326;-80
2023/02/25 10:38:53;;;;;;;12.45;1.98;;;7.50;99.90;;;;;;6250450;22;20011;-80
2023/02/25 10:41:21;;;;;;;7.15;1.83;;;7.60;99.90;;;;;;6247554;22;20082;-80
2023/02/25 10:43:49;;;;;;;10.90;2.45;;;7.70;99.90;;;;;;6246525;22;20334;-81
2023/02/25 10:46:24;;;;;;;6.53;1.70;;;7.70;99.90;;;;;;6246901;22;20007;-80
2023/02/25 10:48:56;;;;;;;6.75;2.10;;;7.60;99.90;;;;;;6276013;22;20067;-80
2023/02/25 10:51:24;;;;;;;5.40;1.65;;;9.10;99.90;;;;;;6273577;22;20008;-79
2023/02/25 10:53:56;;;;;;;5.45;1.77;;;7.90;99.90;;;;;;6272739;22;20008;-80
2023/02/25 10:56:31;;;;;;;6.93;2.20;;;7.60;99.90;;;;;;6270309;22;20042;-80
2023/02/25 10:59:27;;;;;;;11.32;2.05;;;8.10;99.90;;;;;;6274664;22;20014;-81
2023/02/25 11:01:56;;;;;;;11.05;1.98;;;8.10;99.90;;;;;;6248788;22;20014;-80
2023/02/25 11:04:29;;;;;;;9.18;1.38;;;8.20;99.90;;;;;;6246407;22;20434;-80
2023/02/25 11:06:57;;;;;;;4.40;1.50;;;8.20;99.90;;;;;;6253250;22;20061;-80
2023/02/25 11:09:28;;;;;;;8.82;1.60;;;8.00;99.90;;;;;;6254376;22;20426;-80
2023/02/25 11:12:32;;;;;;;5.00;1.50;;;8.10;99.90;;;;;;6280553;22;20008;-80
2023/02/25 11:15:37;;;;;;;6.20;1.60;;;8.10;99.90;;;;;;6160083;23;20005;-80
2023/02/25 11:18:20;;;;;;;7.03;1.55;;;8.10;99.10;;;;;;6282049;22;20004;-80
2023/02/25 11:21:01;;;;;;;6.70;1.23;;;7.80;98.40;;;;;;6282538;22;20023;-80
2023/02/25 11:23:35;;;;;;;6.88;1.70;;;8.20;97.00;;;;;;6256243;22;20469;-80
2023/02/25 11:26:06;;;;;;;5.70;1.20;;;8.20;96.60;;;;;;6255555;22;19999;-80
2023/02/25 11:28:48;;;;;;;5.25;1.50;;;8.30;96.20;;;;;;6255767;22;20030;-79
2023/02/25 11:31:26;;;;;;;7.13;1.48;;;8.40;95.70;;;;;;6253587;22;20014;-79
2023/02/25 11:34:02;;;;;;;5.50;1.50;;;8.20;95.40;;;;;;6252325;22;20061;-80
2023/02/25 11:36:33;;;;;;;10.30;3.20;;;8.00;95.80;;;;;;6252296;22;20008;-79
2023/02/25 11:39:24;;;;;;;10.80;2.00;;;8.10;96.00;;;;;;6283442;22;20004;-79
2023/02/25 11:41:58;;;;;;;8.15;1.98;;;8.20;96.60;;;;;;6224113;22;20011;-80
2023/02/25 11:44:43;;;;;;;5.78;1.73;;;9.70;97.70;;;;;;6251653;22;20007;-80
2023/02/25 11:47:12;;;;;;;6.20;1.20;;;8.10;97.10;;;;;;6248899;22;20430;-80
2023/02/25 11:49:49;;;;;;;7.55;2.40;;;8.10;98.30;;;;;;6273535;22;20438;-80
2023/02/25 11:52:57;;;;;;;9.18;3.15;;;7.70;97.50;;;;;;6246824;22;20008;-80
2023/02/25 11:55:29;;;;;;;4.40;1.52;;;;;;;;;;6275827;22;20071;-80
2023/02/25 11:58:24;;;;;;;5.93;2.25;;;8.20;97.50;;;;;;6246468;22;20003;-80
2023/02/25 12:01:20;;;;;;;13.40;3.58;;;9.40;97.30;;;;;;6249012;22;20008;-79
2023/02/25 12:04:08;;;;;;;11.82;3.35;;;8.10;97.80;;;;;;6264933;22;20240;-79
2023/02/25 12:06:53;;;;;;;8.27;1.85;;;8.50;97.60;;;;;;6247530;22;20010;-80
2023/02/25 12:10:03;;;;;;;5.40;1.45;;;8.10;97.20;;;;;;6275446;22;20011;-81
2023/02/25 12:12:47;;;;;;;6.95;1.58;;;8.10;97.00;;;;;;6249851;22;20091;-82
2023/02/25 12:15:52;;;;;;;8.82;1.70;;;9.10;97.70;;;;;;6248857;22;20493;-81
2023/02/25 12:18:55;;;;;;;7.20;1.98;;;8.00;97.80;;;;;;6250930;22;20007;-80
2023/02/25 12:21:54;;;;;;;5.50;1.50;;;8.10;97.80;;;;;;6255010;22;20095;-81
2023/02/25 12:24:59;;;;;;;8.13;1.52;;;8.00;98.10;;;;;;6276294;22;20414;-80
2023/02/25 12:28:19;;;;;;;7.80;1.60;;;8.10;98.50;;;;;;6277182;22;20111;-81
2023/02/25 12:31:29;;;;;;;9.00;2.30;;;8.20;98.50;;;;;;6282395;22;20008;-81
2023/02/25 12:34:09;;;;;;;6.07;1.40;;;8.40;98.40;;;;;;6250757;22;20448;-81
2023/02/25 12:36:54;;;;;;;7.30;1.58;;;7.80;98.10;;;;;;6279042;22;20000;-82
2023/02/25 12:39:46;;;;;;;7.15;1.60;;;8.60;98.70;;;;;;6251872;22;20010;-81
2023/02/25 12:42:39;;;;;;;6.75;1.20;;;8.50;98.50;;;;;;6280182;22;20389;-81
2023/02/25 12:45:48;;;;;;;6.88;1.52;;;8.30;98.10;;;;;;6277438;22;20000;-81
2023/02/25 12:48:49;;;;;;;6.03;1.70;;;7.60;96.60;;;;;;6279049;22;20415;-81
2023/02/25 12:51:20;;;;;;;3.38;1.10;;;8.50;96.80;;;;;;6252965;22;20452;-80
2023/02/25 12:53:47;;;;;;;7.88;1.90;;;9.40;96.80;;;;;;6281098;22;20011;-80
2023/02/25 12:56:38;;;;;;;6.25;1.15;;;10.10;97.00;;;;;;6279252;22;20004;-80
2023/02/25 12:59:32;;;;;;;5.38;1.40;;;8.30;96.00;;;;;;6280260;22;20012;-81
2023/02/25 13:02:11;;;;;;;6.18;1.35;;;8.40;97.30;;;;;;6251277;22;20431;-80
2023/02/25 13:05:17;;;;;;;5.57;1.60;;;8.40;98.00;;;;;;6275297;22;20060;-81
2023/02/25 13:07:53;;;;;;;6.05;1.77;;;9.50;97.30;;;;;;6250506;22;20077;-81
2023/02/25 13:10:20;;;;;;;9.95;2.58;;;8.20;97.90;;;;;;6249633;22;20062;-80
2023/02/25 13:13:18;;;;;;;7.20;2.00;;;8.30;99.30;;;;;;6281205;22;20061;-81
2023/02/25 13:16:20;;;;;;;8.20;1.73;;;8.10;99.00;;;;;;6281824;22;20008;-81
2023/02/25 13:19:23;;;;;;;5.82;1.75;;;8.20;99.30;;;;;;6281071;22;20022;-80
2023/02/25 13:22:07;;;;;;;9.30;1.58;;;8.10;98.70;;;;;;6256715;22;20041;-81
2023/02/25 13:25:18;;;;;;;7.20;1.58;;;8.30;99.40;;;;;;6259787;22;20003;-81
2023/02/25 13:28:19;;;;;;;6.45;1.80;;;8.30;98.50;;;;;;6269637;22;20004;-80
2023/02/25 13:30:56;;;;;;;6.70;2.42;;;8.50;98.00;;;;;;6263129;22;20006;-81
2023/02/25 13:34:02;;;;;;;6.40;1.92;;;8.70;97.40;;;;;;6288001;22;20449;-81
2023/02/25 13:36:58;;;;;;;4.50;1.27;;;8.80;97.00;;;;;;6290487;22;20208;-81
2023/02/25 13:40:06;;;;;;;9.95;1.70;;;8.90;96.60;;;;;;6294222;22;19994;-80
2023/02/25 13:43:40;;;;;;;7.25;1.75;;;8.90;96.40;;;;;;6297109;22;20012;-81
2023/02/25 13:46:56;;;;;;;5.05;1.60;;;9.00;95.90;;;;;;6146895;23;20447;-80
2023/02/25 13:50:22;;;;;;;5.50;1.63;;;9.10;95.60;;;;;;6297816;22;20008;-79
2023/02/25 13:53:40;;;;;;;4.65;1.40;;;9.10;95.10;;;;;;6266938;23;20011;-79
2023/02/25 13:56:49;;;;;;;3.25;1.10;;;9.10;94.10;;;;;;6274175;22;20004;-80
2023/02/25 14:00:03;;;;;;;8.57;1.52;;;9.10;94.10;;;;;;6244914;22;20028;-80
2023/02/25 14:13:41;;;;;;;6.38;1.38;;;9.30;95.10;;;;;;6291055;22;20042;-80
2023/02/25 14:27:39;;;;;;;7.45;1.75;;;9.50;94.40;;;;;;6140096;23;20012;-79
2023/02/25 14:31:15;;;;;;;5.88;1.50;;;9.70;93.10;;;;;;6133891;23;20038;-80
2023/02/25 14:34:54;;;;;;;6.18;1.20;;;9.70;92.90;;;;;;6139309;23;20014;-80
2023/02/25 14:38:14;;;;;;;5.45;1.75;;;9.60;93.20;;;;;;6139138;23;20017;-81
2023/02/25 14:48:22;;;;;;;5.47;1.40;;;9.20;94.20;;;;;;6280686;22;20038;-81
2023/02/25 14:55:13;;;;;;;8.30;1.55;;;8.80;94.50;;;;;;6238348;23;20007;-81
2023/02/25 14:58:23;;;;;;;10.97;3.13;;;8.80;94.60;;;;;;6214818;23;19993;-79
2023/02/25 15:02:11;;;;;;;5.22;1.23;;;8.60;95.20;;;;;;6214711;23;20011;-81
2023/02/25 15:12:19;;;;;;;5.20;1.48;;;8.60;95.70;;;;;;6250187;22;20046;-80
2023/02/25 15:15:10;;;;;;;5.68;1.65;;;8.20;95.80;;;;;;6252550;22;20031;-79
2023/02/25 15:18:13;;;;;;;3.97;1.15;;;8.80;95.40;;;;;;6252648;22;20030;-80
2023/02/25 15:20:40;;;;;;;6.20;1.60;;;7.30;94.80;;;;;;6252850;22;20011;-80
2023/02/25 15:23:42;;;;;;;9.05;2.35;;;8.80;95.80;;;;;;6292124;22;20000;-81
2023/02/25 15:26:49;;;;;;;7.03;1.70;;;8.70;96.40;;;;;;6295187;22;19999;-81
2023/02/25 15:30:06;;;;;;;8.32;1.73;;;8.70;96.90;;;;;;6268891;22;20023;-81
2023/02/25 15:33:06;;;;;;;8.05;1.40;;;8.60;96.90;;;;;;6293940;22;20004;-82
2023/02/25 15:35:42;;;;;;;6.90;1.67;;;8.60;97.30;;;;;;6297039;22;20026;-81
2023/02/25 15:38:49;;;;;;;6.53;1.60;;;10.50;98.50;;;;;;6292317;22;20030;-80
2023/02/25 15:41:40;;;;;;;7.78;1.90;;;6.20;96.90;;;;;;6288820;22;20004;-80
2023/02/25 15:44:31;;;;;;;5.33;1.63;;;8.40;97.80;;;;;;6282361;22;20019;-81
2023/02/25 15:47:25;;;;;;;4.85;1.60;;;8.30;98.30;;;;;;6257268;22;20238;-81
2023/02/25 15:49:58;;;;;;;6.18;1.90;;;7.30;97.90;;;;;;6262901;22;20054;-81
2023/02/25 15:52:55;;;;;;;4.45;1.40;;;9.10;98.80;;;;;;6269000;22;20004;-81
2023/02/25 15:55:46;;;;;;;5.28;1.63;;;8.20;98.20;;;;;;6266748;22;20023;-81
2023/02/25 15:58:24;;;;;;;12.02;2.25;;;8.30;98.80;;;;;;6268433;22;20015;-80
2023/02/25 16:01:01;;;;;;;6.07;1.65;;;9.10;99.50;;;;;;6295474;22;20095;-81
2023/02/25 16:03:43;;;;;;;7.95;1.40;;;8.60;98.00;;;;;;6262493;22;20004;-81
2023/02/25 16:06:23;;;;;;;6.13;1.50;;;7.80;98.20;;;;;;6260682;22;20030;-81
2023/02/25 16:09:08;;;;;;;10.88;1.90;;;8.50;98.40;;;;;;6286763;22;19992;-81
2023/02/25 16:11:46;;;;;;;8.52;2.40;;;8.40;98.90;;;;;;6287297;22;20003;-80
2023/02/25 16:14:29;;;;;;;7.03;1.92;;;6.30;98.60;;;;;;6287584;22;20023;-79
2023/02/25 16:17:04;;;;;;;6.78;2.05;;;8.30;99.80;;;;;;6261531;22;20008;-80
2023/02/25 16:19:38;;;;;;;4.30;1.50;;;7.80;99.60;;;;;;6260244;22;20094;-80
2023/02/25 16:22:15;;;;;;;6.75;1.30;;;10.60;99.90;;;;;;6269127;22;20071;-80
2023/02/25 16:24:49;;;;;;;3.53;1.38;;;8.00;99.90;;;;;;6249008;22;20095;-80
2023/02/25 16:27:53;;;;;;;4.88;1.30;;;7.90;99.90;;;;;;6261475;22;20000;-79
2023/02/25 16:30:43;;;;;;;8.20;1.70;;;7.80;99.90;;;;;;6261527;22;20049;-80
2023/02/25 16:33:41;;;;;;;6.30;1.30;;;7.70;99.90;;;;;;6242065;22;20018;-79
2023/02/25 16:36:17;;;;;;;5.63;1.27;;;7.60;99.90;;;;;;6294628;22;20011;-80
2023/02/25 16:39:04;;;;;;;5.88;1.95;;;7.60;99.90;;;;;;6270227;22;20027;-80
2023/02/25 16:41:32;;;;;;;4.80;1.27;;;7.50;99.90;;;;;;6291703;22;20011;-79
2023/02/25 16:43:58;;;;;;;3.67;1.10;;;7.30;99.90;;;;;;6242538;22;20012;-80
2023/02/25 16:46:33;;;;;;;5.03;1.30;;;8.20;99.90;;;;;;6266578;22;20064;-80
2023/02/25 16:49:01;;;;;;;2.92;1.13;;;7.30;99.90;;;;;;6241921;22;20003;-80
2023/02/25 16:51:40;;;;;;;8.20;3.47;;;7.10;99.90;;;;;;6269013;22;20003;-80
2023/02/25 16:54:14;;;;;;;6.88;1.98;;;7.10;99.90;;;;;;6243421;22;20025;-80
2023/02/25 16:56:42;;;;;;;4.35;1.40;;;7.00;99.90;;;;;;6270816;22;20002;-79
2023/02/25 16:59:15;;;;;;;3.47;1.60;;;6.90;99.90;;;;;;6243024;22;20007;-79
2023/02/25 17:01:59;;;;;;;5.10;1.70;;;6.90;99.90;;;;;;6240412;22;20030;-80
2023/02/25 17:04:28;;;;;;;3.47;1.40;;;6.90;99.90;;;;;;6265977;22;20011;-79
2023/02/25 17:07:18;;;;;;;3.50;1.60;;;6.90;99.90;;;;;;6267089;22;20014;-80
2023/02/25 17:10:00;;;;;;;6.47;1.23;;;6.80;99.90;;;;;;6246433;22;20102;-81
2023/02/25 17:12:40;;;;;;;4.00;1.50;;;6.80;99.90;;;;;;6246296;22;20078;-79
2023/02/25 17:15:30;;;;;;;2.13;1.15;;;6.80;99.90;;;;;;6244271;22;19996;-80
2023/02/25 17:18:09;;;;;;;4.07;1.85;;;6.80;99.90;;;;;;6242807;22;20003;-80
2023/02/25 17:20:35;;;;;;;2.33;1.40;;;6.80;99.90;;;;;;6244367;22;20022;-80
2023/02/25 17:23:14;;;;;;;2.72;1.27;;;6.80;99.90;;;;;;6269694;22;20004;-82
2023/02/25 17:25:48;;;;;;;2.47;1.30;;;7.00;99.90;;;;;;6243022;22;20010;-80
2023/02/25 17:28:27;;;;;;;3.70;1.52;;;6.80;99.90;;;;;;6243996;22;20019;-80
2023/02/25 17:31:05;;;;;;;3.90;1.80;;;8.30;99.90;;;;;;6247841;22;20011;-80
2023/02/25 17:33:33;;;;;;;3.22;1.63;;;6.80;99.90;;;;;;6244352;22;20018;-80
2023/02/25 17:36:12;;;;;;;4.25;1.80;;;6.80;99.90;;;;;;6246492;22;20092;-80
2023/02/25 17:38:42;;;;;;;4.80;1.92;;;6.80;99.90;;;;;;6248780;22;20007;-80
2023/02/25 17:41:15;;;;;;;4.40;1.80;;;7.00;99.90;;;;;;6263981;22;20003;-81
2023/02/25 17:43:41;;;;;;;4.45;1.83;;;;;;;;;;6256214;22;20004;-80
2023/02/25 17:46:25;;;;;;;4.88;2.15;;;7.00;99.90;;;;;;6250322;22;20006;-81
2023/02/25 17:49:01;;;;;;;6.88;2.00;;;6.80;99.90;;;;;;6277702;22;20027;-81
2023/02/25 17:51:33;;;;;;;4.22;2.08;;;6.70;99.90;;;;;;6278023;22;20069;-79
2023/02/25 17:54:13;;;;;;;3.47;2.05;;;6.60;99.90;;;;;;6251731;22;20003;-80
2023/02/25 17:56:40;;;;;;;4.78;2.38;;;;;;;;;;6252070;22;20035;-80
2023/02/25 17:59:26;;;;;;;7.10;2.40;;;6.40;99.90;;;;;;6281048;22;20004;-81
2023/02/25 18:01:55;;;;;;;6.55;2.80;;;6.30;99.90;;;;;;6252500;22;20045;-79
2023/02/25 18:04:36;;;;;;;7.95;2.28;;;6.30;99.90;;;;;;6280827;22;20063;-81
2023/02/25 18:07:22;;;;;;;7.25;3.35;;;6.30;99.90;;;;;;6283480;22;20018;-81
2023/02/25 18:09:49;;;;;;;5.88;2.65;;;6.30;99.90;;;;;;6276597;22;20038;-80
2023/02/25 18:12:37;;;;;;;5.07;2.30;;;6.20;99.90;;;;;;6250011;22;20027;-80
2023/02/25 18:15:18;;;;;;;3.40;2.08;;;6.30;99.90;;;;;;6225249;22;20007;-79
2023/02/25 18:17:55;;;;;;;4.07;2.50;;;6.20;99.90;;;;;;6249505;22;20594;-80
2023/02/25 18:20:27;;;;;;;4.00;2.33;;;6.20;99.90;;;;;;6248670;22;20737;-81
2023/02/25 18:22:58;;;;;;;3.53;2.08;;;6.20;99.90;;;;;;6275937;22;20000;-80
2023/02/25 18:25:48;;;;;;;4.00;1.90;;;6.30;99.90;;;;;;6277666;22;20008;-81
2023/02/25 18:28:21;;;;;;;5.25;2.00;;;6.10;99.90;;;;;;6276595;22;20011;-81
2023/02/25 18:30:49;;;;;;;6.85;1.85;;;6.30;99.90;;;;;;6250381;22;20015;-81
2023/02/25 18:33:25;;;;;;;6.63;1.83;;;6.20;99.90;;;;;;6247135;22;20015;-80
2023/02/25 18:35:52;;;;;;;3.45;1.48;;;6.20;99.90;;;;;;6250903;22;20015;-83
2023/02/25 18:38:26;;;;;;;4.28;1.80;;;6.80;99.90;;;;;;6224638;22;20038;-80
2023/02/25 18:41:21;;;;;;;4.65;1.55;;;6.10;99.90;;;;;;6272375;22;20012;-82
2023/02/25 18:44:18;;;;;;;3.97;1.40;;;5.90;99.90;;;;;;6247899;22;20045;-80
2023/02/25 18:47:03;;;;;;;7.32;1.90;;;5.70;99.90;;;;;;6243055;22;20044;-80
2023/02/25 18:49:49;;;;;;;5.18;1.90;;;5.60;99.90;;;;;;6231350;22;20008;-80
2023/02/25 18:52:27;;;;;;;9.68;3.22;;;5.60;99.90;;;;;;6235286;22;20011;-80
2023/02/25 18:54:59;;;;;;;7.05;1.73;;;5.50;99.90;;;;;;6232111;22;20011;-80
2023/02/25 18:57:41;;;;;;;3.88;2.00;;;5.40;99.90;;;;;;6283971;22;20104;-81
2023/02/25 19:00:10;;;;;;;4.25;1.63;;;5.40;99.90;;;;;;6253585;22;20519;-80
2023/02/25 19:03:06;;;;;;;5.47;1.80;;;5.40;99.90;;;;;;6257130;22;20000;-81
2023/02/25 19:06:17;;;;;;;6.57;1.98;;;5.40;99.90;;;;;;6231436;22;20004;-81
2023/02/25 19:09:30;;;;;;;5.25;1.58;;;5.30;99.90;;;;;;6282328;22;19996;-81
2023/02/25 19:12:31;;;;;;;4.78;1.60;;;5.50;99.90;;;;;;6285569;22;20054;-81
2023/02/25 19:15:58;;;;;;;6.85;1.98;;;5.30;99.90;;;;;;6246487;22;20041;-81
2023/02/25 19:19:08;;;;;;;6.15;2.45;;;5.20;99.90;;;;;;6286755;22;20028;-81
2023/02/25 19:22:10;;;;;;;4.63;1.67;;;5.20;99.90;;;;;;6268532;22;20018;-80
2023/02/25 19:25:45;;;;;;;6.03;2.53;;;5.10;99.90;;;;;;6302097;22;20034;-81
2023/02/25 19:28:59;;;;;;;7.85;2.25;;;5.00;99.90;;;;;;6293778;22;20242;-81
2023/02/25 19:32:32;;;;;;;6.38;2.65;;;4.00;99.90;;;;;;6277780;22;20065;-81
2023/02/25 19:36:01;;;;;;;9.57;2.80;;;5.00;99.90;;;;;;6295422;22;20081;-81
2023/02/25 19:39:10;;;;;;;8.73;2.95;;;4.80;99.90;;;;;;6293553;22;20008;-80
2023/02/25 19:42:43;;;;;;;7.47;3.00;;;4.30;99.90;;;;;;6287306;22;20023;-82
2023/02/25 19:46:15;;;;;;;4.45;2.60;;;4.60;99.90;;;;;;6188217;22;20035;-82
2023/02/25 19:49:36;;;;;;;6.00;2.03;;;4.60;99.90;;;;;;6286129;22;20080;-81
2023/02/25 19:53:08;;;;;;;7.47;2.28;;;4.50;99.90;;;;;;6291993;22;20037;-81
2023/02/25 19:56:38;;;;;;;8.73;3.53;;;4.50;99.90;;;;;;6288077;22;20020;-81
2023/02/25 20:00:06;;;;;;;8.00;2.30;;;4.50;99.90;;;;;;6285375;22;20011;-81
2023/02/25 20:03:35;;;;;;;5.35;2.03;;;2.00;99.90;;;;;;6286656;22;20014;-82
2023/02/25 20:06:33;;;;;;;5.43;2.70;;;4.60;99.90;;;;;;6283763;22;19996;-81
2023/02/25 20:09:49;;;;;;;9.93;2.38;;;4.50;99.90;;;;;;6284563;22;20012;-81
2023/02/25 20:12:43;;;;;;;5.72;2.20;;;4.30;99.90;;;;;;6281148;22;20104;-81
2023/02/25 20:16:13;;;;;;;7.25;2.38;;;4.40;99.90;;;;;;6250925;22;20000;-81
2023/02/25 20:19:10;;;;;;;4.22;1.85;;;4.40;99.90;;;;;;6279074;22;20004;-82
2023/02/25 20:22:02;;;;;;;6.50;1.85;;;;;;;;;;6261966;22;20004;-81
2023/02/25 20:25:03;;;;;;;5.75;2.05;;;4.90;99.90;;;;;;6292793;22;20034;-82
2023/02/25 20:28:01;;;;;;;11.05;3.92;;;;;;;;;;6276460;22;20342;-82
2023/02/25 20:30:57;;;;;;;5.53;2.08;;;4.30;99.90;;;;;;6292856;22;20008;-82
2023/02/25 20:34:25;;;;;;;7.13;2.30;;;4.80;99.90;;;;;;6286321;22;20037;-81
2023/02/25 20:37:50;;;;;;;6.40;1.85;;;4.30;99.90;;;;;;6290469;22;20039;-81
2023/02/25 20:40:46;;;;;;;6.05;1.90;;;4.20;99.90;;;;;;6288375;22;20018;-80
2023/02/25 20:43:55;;;;;;;6.68;2.42;;;4.10;99.90;;;;;;6286564;22;19999;-81
2023/02/25 20:47:01;;;;;;;4.10;2.00;;;4.10;99.90;;;;;;6257529;22;20022;-81
2023/02/25 20:50:10;;;;;;;5.90;1.80;;;3.90;99.90;;;;;;6282019;22;20031;-81
2023/02/25 20:53:04;;;;;;;4.07;2.10;;;4.00;99.90;;;;;;6259705;22;20090;-81
2023/02/25 20:55:35;;;;;;;8.30;2.20;;;4.00;99.90;;;;;;6260008;22;20014;-80
2023/02/25 20:58:03;;;;;;;9.07;2.40;;;;;;;;;;6251111;22;20016;-80
2023/02/25 21:00:29;;;;;;;5.30;1.90;;;;;;;;;;6245601;22;20855;-79
2023/02/25 21:02:56;;;;;;;5.70;2.10;;;;;;;;;;6287208;22;20016;-80
2023/02/25 21:05:21;;;;;;;5.32;2.33;;;3.80;99.90;;;;;;6258778;22;20007;-80
2023/02/25 21:07:50;;;;;;;7.15;2.10;;;5.40;99.90;;;;;;6271372;22;19991;-80
2023/02/25 21:10:15;;;;;;;6.80;2.70;;;3.80;99.90;;;;;;6237535;23;20004;-81
2023/02/25 21:12:41;;;;;;;4.90;2.08;;;3.80;99.90;;;;;;6239420;22;20016;-79
2023/02/25 21:15:08;;;;;;;8.43;2.53;;;3.80;99.90;;;;;;6243621;22;20008;-80
2023/02/25 21:17:33;;;;;;;8.63;2.53;;;3.70;99.90;;;;;;6238936;23;20000;-80
2023/02/25 21:20:05;;;;;;;7.85;3.35;;;3.70;99.90;;;;;;6238806;23;20463;-80
2023/02/25 21:22:31;;;;;;;7.97;2.95;;;3.70;99.90;;;;;;6264093;23;20297;-80
2023/02/25 21:24:57;;;;;;;7.30;2.33;;;3.70;99.90;;;;;;6265187;23;19988;-80
2023/02/25 21:27:24;;;;;;;5.40;2.10;;;3.60;99.90;;;;;;6264995;22;20011;-78
2023/02/25 21:29:49;;;;;;;6.05;2.13;;;3.60;99.90;;;;;;6237982;23;20087;-80
2023/02/25 21:32:16;;;;;;;7.65;1.95;;;;;;;;;;6249067;23;20327;-79
2023/02/25 21:34:42;;;;;;;6.60;1.85;;;;;;;;;;6249273;23;20000;-79
2023/02/25 21:37:08;;;;;;;5.47;2.08;;;3.70;99.90;;;;;;6225115;23;20022;-84
2023/02/25 21:39:34;;;;;;;3.38;1.58;;;3.60;99.90;;;;;;6258116;22;20075;-79
2023/02/25 21:42:20;;;;;;;5.82;2.30;;;3.90;99.90;;;;;;5080990;27;2174578;-80
2023/02/25 21:44:46;;;;;;;4.97;1.73;;;3.80;99.90;;;;;;5122896;28;20016;-80
2023/02/25 21:47:12;;;;;;;4.30;1.73;;;3.90;99.90;;;;;;5129021;28;20043;-81
2023/02/25 21:49:39;;;;;;;4.13;1.63;;;3.70;99.90;;;;;;5100007;28;20035;-81
2023/02/25 21:52:05;;;;;;;5.00;1.70;;;3.70;99.90;;;;;;5104706;28;20054;-81
2023/02/25 21:54:31;;;;;;;4.40;1.60;;;3.60;99.70;;;;;;5101312;28;20119;-80
2023/02/25 21:56:57;;;;;;;4.53;1.70;;;3.70;99.90;;;;;;5105246;28;20018;-80
2023/02/25 21:59:24;;;;;;;5.47;1.60;;;;;;;;;;5108775;28;20054;-81
2023/02/25 22:01:50;;;;;;;4.78;1.67;;;3.70;99.30;;;;;;5108998;28;20032;-80
2023/02/25 22:04:16;;;;;;;5.43;1.67;;;3.60;99.60;;;;;;5103324;28;20035;-80
2023/02/25 22:06:43;;;;;;;4.97;1.90;;;3.60;99.40;;;;;;5106473;28;20092;-79
2023/02/25 22:09:09;;;;;;;5.43;1.60;;;3.70;99.60;;;;;;5102995;28;20024;-80
2023/02/25 22:11:37;;;;;;;5.55;1.80;;;3.50;99.50;;;;;;5098800;28;20024;-79
2023/02/25 22:14:04;;;;;;;5.25;1.83;;;3.40;99.50;;;;;;5095142;28;20028;-79
2023/02/25 22:16:30;;;;;;;8.07;3.05;;;5.60;99.90;;;;;;5104337;28;20052;-79
2023/02/25 22:18:56;;;;;;;7.32;2.00;;;3.30;99.60;;;;;;5089281;28;20024;-80
2023/02/25 22:21:29;;;;;;;3.40;1.60;;;3.30;99.70;;;;;;5091719;28;20551;-78
2023/02/25 22:23:58;;;;;;;9.57;2.53;;;3.30;99.60;;;;;;5090995;28;20024;-79
2023/02/25 22:26:27;;;;;;;5.70;1.83;;;3.20;99.70;;;;;;5086470;28;20098;-79
2023/02/25 22:28:54;;;;;;;4.40;1.95;;;3.20;99.30;;;;;;5104300;28;20078;-79
2023/02/25 22:31:21;;;;;;;5.53;2.08;;;3.30;99.50;;;;;;5104647;28;20024;-81
2023/02/25 22:33:47;;;;;;;5.55;1.80;;;3.10;99.60;;;;;;5106995;28;20013;-80
2023/02/25 22:36:15;;;;;;;6.05;1.90;;;3.20;99.40;;;;;;5105997;28;20030;-80
2023/02/25 22:38:44;;;;;;;4.57;1.63;;;3.10;99.50;;;;;;5101003;28;20037;-80
2023/02/25 22:41:18;;;;;;;4.00;1.60;;;3.60;99.50;;;;;;5099169;28;20047;-78
2023/02/25 22:43:44;;;;;;;4.35;1.70;;;3.10;99.40;;;;;;5104200;28;20033;-80
2023/02/25 22:46:15;;;;;;;4.97;1.85;;;3.00;99.30;;;;;;5105213;28;20029;-80
2023/02/25 22:48:43;;;;;;;2.80;1.50;;;3.00;99.30;;;;;;5108004;28;20024;-81
2023/02/25 22:51:10;;;;;;;6.93;2.10;;;2.90;99.10;;;;;;5117033;28;20044;-80
2023/02/25 22:53:37;;;;;;;10.25;1.80;;;2.90;99.50;;;;;;5087108;28;20046;-80
2023/02/25 22:56:05;;;;;;;4.32;1.75;;;2.90;99.00;;;;;;5089120;28;20036;-79
2023/02/25 22:58:31;;;;;;;6.38;2.22;;;2.90;99.30;;;;;;5088708;28;20028;-78
2023/02/25 23:00:59;;;;;;;3.88;1.90;;;2.90;99.10;;;;;;5095209;28;20047;-79
2023/02/25 23:03:25;;;;;;;7.28;1.77;;;3.20;99.20;;;;;;5093959;28;20067;-78
2023/02/25 23:05:52;;;;;;;5.15;1.65;;;2.80;99.20;;;;;;5094062;28;20036;-80
2023/02/25 23:08:17;;;;;;;4.30;1.73;;;4.60;99.90;;;;;;5101334;28;20044;-81
2023/02/25 23:10:43;;;;;;;6.55;2.83;;;2.80;99.40;;;;;;5093741;28;20076;-80
2023/02/25 23:13:10;;;;;;;5.43;1.85;;;2.80;99.20;;;;;;5079292;28;20044;-80
2023/02/25 23:15:38;;;;;;;3.40;1.40;;;2.80;99.30;;;;;;5079111;28;20088;-80
2023/02/25 23:18:07;;;;;;;5.20;2.10;;;2.80;99.40;;;;;;5080282;28;20033;-80
2023/02/25 23:20:34;;;;;;;7.32;1.67;;;2.80;99.90;;;;;;5083030;28;20043;-80
2023/02/25 23:23:08;;;;;;;5.70;2.15;;;3.80;99.90;;;;;;5078013;28;20037;-80
2023/02/25 23:25:39;;;;;;;5.00;2.10;;;2.80;99.90;;;;;;5084086;28;20024;-80
2023/02/25 23:28:07;;;;;;;3.80;1.83;;;2.80;99.90;;;;;;5088996;28;20131;-80
2023/02/25 23:30:36;;;;;;;5.25;2.28;;;2.70;99.90;;;;;;5082474;28;20029;-80
2023/02/25 23:33:02;;;;;;;7.63;2.38;;;;;;;;;;5097825;28;20506;-79
2023/02/25 23:35:28;;;;;;;7.05;2.13;;;;;;;;;;5085970;28;20032;-81
2023/02/25 23:37:54;;;;;;;5.43;2.03;;;;;;;;;;5092614;28;20029;-80
2023/02/25 23:40:22;;;;;;;5.20;2.72;;;2.60;99.90;;;;;;5093420;28;20013;-81
2023/02/25 23:42:48;;;;;;;7.85;2.75;;;4.50;99.90;;;;;;5096515;28;20466;-81
2023/02/25 23:45:15;;;;;;;7.85;2.30;;;;;;;;;;5094439;28;20046;-80
2023/02/25 23:47:41;;;;;;;10.07;2.85;;;2.40;99.90;;;;;;5089652;28;20023;-81
2023/02/25 23:50:16;;;;;;;6.13;2.35;;;2.30;99.90;;;;;;5089025;28;20028;-81
2023/02/25 23:52:44;;;;;;;8.52;2.10;;;;;;;;;;5082818;28;20029;-80
2023/02/25 23:55:11;;;;;;;10.77;2.53;;;2.30;99.90;;;;;;5076215;28;20032;-80
2023/02/25 23:57:37;;;;;;;6.20;2.05;;;;;;;;;;5085066;28;20040;-80
